Mont Saint Michel — FNMT — position and weather

sailwx.info

Track history (hours):
 
Tides and Currents Weather Stations Pressure Air Temp Water Temp Dewpoint Dewpoint Depression Visibility Wind Speed Wind Dir Waves Ship Positions

Mont Saint Michel

Last reported at 2016-Aug-27 19:34 UTC. Time now 2016-Aug-27 20:35 UTC.
Position N 49°17' W 000°15'.

Length 173 m; beam 29 m.

Type: Ship. MMSI: 227023100.

Date/timePositionNaut miles runAvg speedWind from/ knotsBaromVisibWave heightAir tempDewpointWater temp
2016-Aug-27 19:34N 49°17' W 000°15'1211.8
2016-Aug-27 18:33N 49°29' W 000°20'1817.6
2016-Aug-27 17:33N 49°45' W 000°29'1818.1
2016-Aug-27 16:33N 50°02' W 000°39'2019.2
2016-Aug-27 15:30N 50°21' W 000°49'1919.7
2016-Aug-27 14:33N 50°39' W 000°59'1110.7
2016-Aug-27 13:33N 50°49' W 001°06'0 0.0
2016-Aug-27 12:33N 50°49' W 001°06'5 4.9
2016-Aug-27 11:33N 50°44' W 001°04'1716.7
2016-Aug-27 10:33N 50°28' W 000°56'1918.8
2016-Aug-27 09:33N 50°10' W 000°46'2020.4
2016-Aug-27 08:33N 49°51' W 000°34'2020.2
2016-Aug-27 07:33N 49°33' W 000°21'1616.2
2016-Aug-27 06:33N 49°17' W 000°15'0 0.0
2016-Aug-27 04:33N 49°17' W 000°15'1413.8
2016-Aug-27 03:33N 49°31' W 000°21'1313.2
2016-Aug-27 02:33N 49°43' W 000°29'1413.7
2016-Aug-27 01:33N 49°56' W 000°35'1717.5
2016-Aug-27 00:33N 50°12' W 000°45'1717.4
2016-Aug-26 23:33N 50°29' W 000°53'1616.0
2016-Aug-26 22:33N 50°44' W 001°02'6 5.6
2016-Aug-26 21:33N 50°49' W 001°06'0 0.0
2016-Aug-26 20:34N 50°49' W 001°06'5 5.2
2016-Aug-26 19:33N 50°44' W 001°03'1717.1
2016-Aug-26 18:33N 50°28' W 000°52'1919.2
2016-Aug-26 17:34N 50°10' W 000°43'1919.1
2016-Aug-26 16:33N 49°52' W 000°34'1918.7
2016-Aug-26 15:33N 49°35' W 000°22'1818.0
2016-Aug-26 14:33N 49°17' W 000°15'0 0.1
2016-Aug-26 13:33N 49°17' W 000°15'1 1.5
2016-Aug-26 12:33N 49°19' W 000°15'1919.1
2016-Aug-26 11:34N 49°37' W 000°24'2019.6
2016-Aug-26 10:34N 49°54' W 000°39'1919.4
2016-Aug-26 09:34N 50°12' W 000°49'2120.6
2016-Aug-26 08:33N 50°32' W 000°56'1716.9
2016-Aug-26 07:34N 50°48' W 001°07'1 1.1
2016-Aug-26 06:33N 50°49' W 001°06'13 6.5
2016-Aug-26 04:34N 50°37' W 000°59'1615.5
2016-Aug-26 03:33N 50°22' W 000°50'1111.5
2016-Aug-26 02:33N 50°11' W 000°44'1010.4
2016-Aug-26 01:33N 50°02' W 000°39'10 9.7
2016-Aug-26 00:33N 49°53' W 000°31'1010.4
2016-Aug-25 23:33N 49°43' W 000°27'1110.9
2016-Aug-25 22:33N 49°33' W 000°22'1111.2
2016-Aug-25 21:33N 49°22' W 000°17'5 4.9
2016-Aug-25 20:33N 49°17' W 000°15'0 0.0
2016-Aug-25 19:33N 49°17' W 000°15'1212.2
2016-Aug-25 18:33N 49°29' W 000°19'1919.3
2016-Aug-25 17:33N 49°47' W 000°32'1919.4
2016-Aug-25 16:33N 50°06' W 000°38'1919.5
2016-Aug-25 15:33N 50°24' W 000°50'2019.7
2016-Aug-25 14:33N 50°42' W 001°02'7 7.4
2016-Aug-25 13:33N 50°49' W 001°06'0 0.0
2016-Aug-25 12:33N 50°49' W 001°06'6 5.7
2016-Aug-25 11:33N 50°44' W 001°02'1817.6
2016-Aug-25 10:33N 50°26' W 000°58'1919.4
2016-Aug-25 09:33N 50°08' W 000°45'2020.1
2016-Aug-25 08:33N 49°50' W 000°32'2020.0
2016-Aug-25 07:33N 49°32' W 000°20'1514.9
2016-Aug-25 06:33N 49°17' W 000°15'0 0.0
2016-Aug-25 04:34N 49°17' W 000°15'1111.2
2016-Aug-25 03:33N 49°28' W 000°18'1312.6
2016-Aug-25 02:33N 49°41' W 000°22'1312.5
2016-Aug-25 01:33N 49°52' W 000°29'1313.4
2016-Aug-25 00:34N 50°05' W 000°38'1515.2
2016-Aug-24 23:33N 50°18' W 000°48'1615.7
2016-Aug-24 22:34N 50°33' W 000°57'1313.2
2016-Aug-24 21:34N 50°45' W 001°05'4 3.6
2016-Aug-24 20:31N 50°49' W 001°06'0 0.0
2016-Aug-24 19:31N 50°49' W 001°06'0 0.0
2016-Aug-24 18:33N 50°49' W 001°06'6 5.7
2016-Aug-24 17:33N 50°43' W 001°03'1919.0
2016-Aug-24 16:33N 50°26' W 000°51'1716.8
2016-Aug-24 15:33N 50°10' W 000°41'1717.0
2016-Aug-24 14:34N 49°54' W 000°33'1716.8
2016-Aug-24 13:34N 49°39' W 000°22'1716.8
2016-Aug-24 12:34N 49°22' W 000°16'5 5.1
2016-Aug-24 11:33N 49°17' W 000°15'0 0.0
2016-Aug-24 10:33N 49°17' W 000°15'0 0.0
2016-Aug-24 09:33N 49°17' W 000°15'0 0.0
2016-Aug-24 08:33N 49°17' W 000°15'0 0.0
2016-Aug-24 07:33N 49°17' W 000°15'0 0.0
2016-Aug-24 06:33N 49°17' W 000°15'12 5.8
2016-Aug-24 04:34N 49°28' W 000°20'1413.8
2016-Aug-24 03:33N 49°42' W 000°26'1211.9
2016-Aug-24 02:33N 49°53' W 000°32'1212.1
2016-Aug-24 01:33N 50°05' W 000°37'1211.9
2016-Aug-24 00:33N 50°16' W 000°42'1414.1
2016-Aug-23 23:34N 50°29' W 000°52'1515.2
2016-Aug-23 22:34N 50°43' W 001°00'7 6.8
2016-Aug-23 21:33N 50°49' W 001°06'0 0.0
2016-Aug-23 20:33N 50°49' W 001°06'6 6.0
2016-Aug-23 19:33N 50°43' W 001°01'1717.4
2016-Aug-23 18:33N 50°27' W 000°53'1919.2
2016-Aug-23 17:34N 50°09' W 000°43'1919.3
2016-Aug-23 16:33N 49°50' W 000°34'2019.7
2016-Aug-23 15:33N 49°32' W 000°22'1515.5
2016-Aug-23 14:33N 49°17' W 000°15'0 0.0
2016-Aug-23 13:33N 49°17' W 000°15'1 0.7
2016-Aug-23 12:34N 49°18' W 000°15'2019.7
2016-Aug-23 11:34N 49°37' W 000°23'2120.9
2016-Aug-23 10:34N 49°56' W 000°37'2120.8
2016-Aug-23 09:34N 50°16' W 000°47'2019.5
2016-Aug-23 08:34N 50°34' W 000°56'1515.3
2016-Aug-23 07:34N 50°48' W 001°07'1 1.0
2016-Aug-23 06:33N 50°49' W 001°06'0 0.1
2016-Aug-23 05:34N 50°49' W 001°06'1312.7
2016-Aug-23 04:33N 50°37' W 000°58'1111.4
2016-Aug-23 03:33N 50°26' W 000°52'1211.6
2016-Aug-23 02:33N 50°16' W 000°45'1111.5
2016-Aug-23 01:33N 50°05' W 000°39'1110.9
2016-Aug-23 00:33N 49°55' W 000°33'1111.1
2016-Aug-22 23:33N 49°44' W 000°28'1110.8
2016-Aug-22 22:33N 49°34' W 000°22'1211.8
2016-Aug-22 21:33N 49°23' W 000°16'6 5.5
2016-Aug-22 20:33N 49°17' W 000°15'0 0.0
2016-Aug-22 19:34N 49°17' W 000°15'8 7.8
2016-Aug-22 18:33N 49°25' W 000°16'2019.7
2016-Aug-22 17:33N 49°43' W 000°28'2019.5
2016-Aug-22 16:33N 50°02' W 000°37'2019.9
2016-Aug-22 15:33N 50°21' W 000°48'2020.1
2016-Aug-22 14:34N 50°39' W 000°60'1010.2
2016-Aug-22 13:34N 50°49' W 001°06'0 0.0
2016-Aug-22 12:34N 50°49' W 001°06'5 4.8
2016-Aug-22 11:34N 50°44' W 001°04'1919.3
2016-Aug-22 10:33N 50°27' W 000°50'2020.4
2016-Aug-22 09:33N 50°07' W 000°42'1919.0
2016-Aug-22 08:33N 49°49' W 000°34'1918.7
2016-Aug-22 07:33N 49°32' W 000°23'1515.1
2016-Aug-22 06:33N 49°17' W 000°15'0 0.0
2016-Aug-22 05:33N 49°17' W 000°15'0 0.1
2016-Aug-22 04:33N 49°17' W 000°15'1515.0
2016-Aug-22 03:33N 49°32' W 000°19'1514.8
2016-Aug-22 02:33N 49°46' W 000°28'1515.0
2016-Aug-22 01:33N 49°60' W 000°36'1816.7
2016-Aug-22 00:28N 50°17' W 000°46'1617.0
2016-Aug-21 23:34N 50°31' W 000°54'1515.3
2016-Aug-21 22:33N 50°45' W 001°05'4 3.7
2016-Aug-21 21:33N 50°49' W 001°06'0 0.0
2016-Aug-21 20:33N 50°49' W 001°06'6 5.6
2016-Aug-21 19:33N 50°44' W 001°02'1817.8
2016-Aug-21 18:33N 50°29' W 000°46'2019.6
2016-Aug-21 17:33N 50°10' W 000°40'2120.6
2016-Aug-21 16:33N 49°50' W 000°30'2120.7
2016-Aug-21 15:33N 49°31' W 000°20'1413.6
2016-Aug-21 14:33N 49°17' W 000°15'0 0.0
2016-Aug-21 13:33N 49°17' W 000°15'0 0.2
2016-Aug-21 12:34N 49°17' W 000°15'1918.8
2016-Aug-21 11:33N 49°36' W 000°21'2121.0
2016-Aug-21 10:33N 49°55' W 000°32'2420.9
2016-Aug-21 09:25N 50°18' W 000°44'1820.9
2016-Aug-21 08:33N 50°34' W 000°55'1615.8
2016-Aug-21 07:34N 50°48' W 001°07'1 0.8
2016-Aug-21 06:34N 50°49' W 001°06'0 0.1
2016-Aug-21 05:33N 50°49' W 001°06'1212.0
2016-Aug-21 04:33N 50°38' W 000°59'1514.6
2016-Aug-21 03:34N 50°23' W 000°57'1715.1
2016-Aug-21 02:28N 50°07' W 000°54'1415.1
2016-Aug-21 01:34N 49°53' W 000°51'1312.7
2016-Aug-21 00:33N 49°41' W 000°46'9 9.4
2016-Aug-20 23:33N 49°35' W 000°35'9 9.0
2016-Aug-20 22:34N 49°29' W 000°25'10 9.6
2016-Aug-20 21:34N 49°22' W 000°15'4 4.4
2016-Aug-20 20:34N 49°17' W 000°15'0 0.0
2016-Aug-20 19:33N 49°17' W 000°15'1413.7
2016-Aug-20 18:34N 49°31' W 000°20'1919.5
2016-Aug-20 17:34N 49°49' W 000°30'1918.8
2016-Aug-20 16:34N 50°06' W 000°41'1918.8
2016-Aug-20 15:34N 50°23' W 000°53'1918.8
2016-Aug-20 14:34N 50°42' W 001°01'8 7.7
2016-Aug-20 13:33N 50°49' W 001°06'0 0.0
2016-Aug-20 12:33N 50°49' W 001°06'6 5.8
2016-Aug-20 11:33N 50°43' W 001°02'1919.4
2016-Aug-20 10:33N 50°27' W 000°46'2019.9
2016-Aug-20 09:33N 50°08' W 000°38'1919.4
2016-Aug-20 08:33N 49°49' W 000°30'1919.2
2016-Aug-20 07:34N 49°31' W 000°20'1413.8
2016-Aug-20 06:33N 49°17' W 000°15'0 0.0
2016-Aug-20 05:33N 49°17' W 000°15'0 0.1
2016-Aug-20 04:33N 49°17' W 000°15'1413.6
2016-Aug-20 03:33N 49°30' W 000°20'1514.6
2016-Aug-20 02:33N 49°44' W 000°28'1413.9
2016-Aug-20 01:34N 49°57' W 000°36'1414.0
2016-Aug-20 00:33N 50°10' W 000°43'1514.3
2016-Aug-19 23:29N 50°25' W 000°51'1616.9
2016-Aug-19 22:33N 50°40' W 000°59'1010.2
2016-Aug-19 21:33N 50°49' W 001°06'0 0.0
2016-Aug-19 20:33N 50°49' W 001°06'2 2.0
2016-Aug-19 19:33N 50°47' W 001°06'1717.4
2016-Aug-19 18:33N 50°31' W 000°53'2020.1
2016-Aug-19 17:33N 50°13' W 000°39'1919.1
2016-Aug-19 16:33N 49°54' W 000°34'2020.5
2016-Aug-19 15:33N 49°35' W 000°23'1918.7
2016-Aug-19 14:33N 49°17' W 000°15'0 0.0
2016-Aug-19 13:33N 49°17' W 000°15'0 0.3
2016-Aug-19 12:34N 49°18' W 000°15'1919.5
2016-Aug-19 11:34N 49°36' W 000°24'2121.1
2016-Aug-19 10:34N 49°56' W 000°36'3120.8
2016-Aug-19 09:03N 50°25' W 000°52'1020.6
2016-Aug-19 08:34N 50°35' W 000°57'1414.4
2016-Aug-19 07:33N 50°48' W 001°07'1 0.9
2016-Aug-19 06:33N 50°49' W 001°06'1 0.7
2016-Aug-19 05:33N 50°48' W 001°07'1413.8
2016-Aug-19 04:33N 50°36' W 000°57'1212.3
2016-Aug-19 03:33N 50°25' W 000°50'1211.5
2016-Aug-19 02:33N 50°14' W 000°44'1212.0
2016-Aug-19 01:33N 50°03' W 000°37'1212.0
2016-Aug-19 00:33N 49°51' W 000°30'1211.5
2016-Aug-18 23:33N 49°41' W 000°24'1010.2
2016-Aug-18 22:33N 49°31' W 000°18'1010.1
2016-Aug-18 21:33N 49°21' W 000°14'4 4.1
2016-Aug-18 20:34N 49°17' W 000°15'0 0.0
2016-Aug-18 19:33N 49°17' W 000°15'1212.3
2016-Aug-18 18:33N 49°30' W 000°16'2120.9
2016-Aug-18 17:33N 49°49' W 000°28'1918.8
2016-Aug-18 16:33N 50°06' W 000°40'1918.5
2016-Aug-18 15:33N 50°24' W 000°49'1818.5
2016-Aug-18 14:33N 50°41' W 001°00'9 8.5
2016-Aug-18 13:34N 50°49' W 001°06'0 0.0
2016-Aug-18 12:34N 50°49' W 001°06'3 3.1
2016-Aug-18 11:34N 50°46' W 001°05'1918.8
2016-Aug-18 10:33N 50°28' W 000°56'2120.5
2016-Aug-18 09:33N 50°09' W 000°43'2020.4
2016-Aug-18 08:33N 49°50' W 000°33'2019.6
2016-Aug-18 07:34N 49°31' W 000°23'1514.8
2016-Aug-18 06:33N 49°17' W 000°15'0 0.0
2016-Aug-18 05:33N 49°17' W 000°15'0 0.1
2016-Aug-18 04:33N 49°17' W 000°15'1414.1
2016-Aug-18 03:33N 49°31' W 000°20'1312.8
2016-Aug-18 02:34N 49°42' W 000°28'1110.6
2016-Aug-18 01:34N 49°52' W 000°34'1211.9
2016-Aug-18 00:34N 50°04' W 000°40'1515.1
2016-Aug-17 23:34N 50°18' W 000°48'1615.5
2016-Aug-17 22:34N 50°33' W 000°56'1413.9
2016-Aug-17 21:34N 50°45' W 001°05'4 3.6
2016-Aug-17 20:34N 50°49' W 001°06'0 0.0
2016-Aug-17 19:34N 50°49' W 001°06'  
Track history (hours):
 
Tides and Currents Weather Stations Pressure Air Temp Water Temp Dewpoint Dewpoint Depression Visibility Wind Speed Wind Dir Waves Ship Positions

Mont Saint Michel

Last reported at 2016-Aug-27 19:34 UTC. Time now 2016-Aug-27 20:35 UTC.
Position N 49°17' W 000°15'.

Length 173 m; beam 29 m.

Type: Ship. MMSI: 227023100.

Date/timePositionNaut miles runAvg speedWind from/ knotsBaromVisibWave heightAir tempDewpointWater temp
2016-Aug-27 19:34N 49°17' W 000°15'1211.8
2016-Aug-27 18:33N 49°29' W 000°20'1817.6
2016-Aug-27 17:33N 49°45' W 000°29'1818.1
2016-Aug-27 16:33N 50°02' W 000°39'2019.2
2016-Aug-27 15:30N 50°21' W 000°49'1919.7
2016-Aug-27 14:33N 50°39' W 000°59'1110.7
2016-Aug-27 13:33N 50°49' W 001°06'0 0.0
2016-Aug-27 12:33N 50°49' W 001°06'5 4.9
2016-Aug-27 11:33N 50°44' W 001°04'1716.7
2016-Aug-27 10:33N 50°28' W 000°56'1918.8
2016-Aug-27 09:33N 50°10' W 000°46'2020.4
2016-Aug-27 08:33N 49°51' W 000°34'2020.2
2016-Aug-27 07:33N 49°33' W 000°21'1616.2
2016-Aug-27 06:33N 49°17' W 000°15'0 0.0
2016-Aug-27 04:33N 49°17' W 000°15'1413.8
2016-Aug-27 03:33N 49°31' W 000°21'1313.2
2016-Aug-27 02:33N 49°43' W 000°29'1413.7
2016-Aug-27 01:33N 49°56' W 000°35'1717.5
2016-Aug-27 00:33N 50°12' W 000°45'1717.4
2016-Aug-26 23:33N 50°29' W 000°53'1616.0
2016-Aug-26 22:33N 50°44' W 001°02'6 5.6
2016-Aug-26 21:33N 50°49' W 001°06'0 0.0
2016-Aug-26 20:34N 50°49' W 001°06'5 5.2
2016-Aug-26 19:33N 50°44' W 001°03'1717.1
2016-Aug-26 18:33N 50°28' W 000°52'1919.2
2016-Aug-26 17:34N 50°10' W 000°43'1919.1
2016-Aug-26 16:33N 49°52' W 000°34'1918.7
2016-Aug-26 15:33N 49°35' W 000°22'1818.0
2016-Aug-26 14:33N 49°17' W 000°15'0 0.1
2016-Aug-26 13:33N 49°17' W 000°15'1 1.5
2016-Aug-26 12:33N 49°19' W 000°15'1919.1
2016-Aug-26 11:34N 49°37' W 000°24'2019.6
2016-Aug-26 10:34N 49°54' W 000°39'1919.4
2016-Aug-26 09:34N 50°12' W 000°49'2120.6
2016-Aug-26 08:33N 50°32' W 000°56'1716.9
2016-Aug-26 07:34N 50°48' W 001°07'1 1.1
2016-Aug-26 06:33N 50°49' W 001°06'13 6.5
2016-Aug-26 04:34N 50°37' W 000°59'1615.5
2016-Aug-26 03:33N 50°22' W 000°50'1111.5
2016-Aug-26 02:33N 50°11' W 000°44'1010.4
2016-Aug-26 01:33N 50°02' W 000°39'10 9.7
2016-Aug-26 00:33N 49°53' W 000°31'1010.4
2016-Aug-25 23:33N 49°43' W 000°27'1110.9
2016-Aug-25 22:33N 49°33' W 000°22'1111.2
2016-Aug-25 21:33N 49°22' W 000°17'5 4.9
2016-Aug-25 20:33N 49°17' W 000°15'0 0.0
2016-Aug-25 19:33N 49°17' W 000°15'1212.2
2016-Aug-25 18:33N 49°29' W 000°19'1919.3
2016-Aug-25 17:33N 49°47' W 000°32'1919.4
2016-Aug-25 16:33N 50°06' W 000°38'1919.5
2016-Aug-25 15:33N 50°24' W 000°50'2019.7
2016-Aug-25 14:33N 50°42' W 001°02'7 7.4
2016-Aug-25 13:33N 50°49' W 001°06'0 0.0
2016-Aug-25 12:33N 50°49' W 001°06'6 5.7
2016-Aug-25 11:33N 50°44' W 001°02'1817.6
2016-Aug-25 10:33N 50°26' W 000°58'1919.4
2016-Aug-25 09:33N 50°08' W 000°45'2020.1
2016-Aug-25 08:33N 49°50' W 000°32'2020.0
2016-Aug-25 07:33N 49°32' W 000°20'1514.9
2016-Aug-25 06:33N 49°17' W 000°15'0 0.0
2016-Aug-25 04:34N 49°17' W 000°15'1111.2
2016-Aug-25 03:33N 49°28' W 000°18'1312.6
2016-Aug-25 02:33N 49°41' W 000°22'1312.5
2016-Aug-25 01:33N 49°52' W 000°29'1313.4
2016-Aug-25 00:34N 50°05' W 000°38'1515.2
2016-Aug-24 23:33N 50°18' W 000°48'1615.7
2016-Aug-24 22:34N 50°33' W 000°57'1313.2
2016-Aug-24 21:34N 50°45' W 001°05'4 3.6
2016-Aug-24 20:31N 50°49' W 001°06'0 0.0
2016-Aug-24 19:31N 50°49' W 001°06'0 0.0
2016-Aug-24 18:33N 50°49' W 001°06'6 5.7
2016-Aug-24 17:33N 50°43' W 001°03'1919.0
2016-Aug-24 16:33N 50°26' W 000°51'1716.8
2016-Aug-24 15:33N 50°10' W 000°41'1717.0
2016-Aug-24 14:34N 49°54' W 000°33'1716.8
2016-Aug-24 13:34N 49°39' W 000°22'1716.8
2016-Aug-24 12:34N 49°22' W 000°16'5 5.1
2016-Aug-24 11:33N 49°17' W 000°15'0 0.0
2016-Aug-24 10:33N 49°17' W 000°15'0 0.0
2016-Aug-24 09:33N 49°17' W 000°15'0 0.0
2016-Aug-24 08:33N 49°17' W 000°15'0 0.0
2016-Aug-24 07:33N 49°17' W 000°15'0 0.0
2016-Aug-24 06:33N 49°17' W 000°15'12 5.8
2016-Aug-24 04:34N 49°28' W 000°20'1413.8
2016-Aug-24 03:33N 49°42' W 000°26'1211.9
2016-Aug-24 02:33N 49°53' W 000°32'1212.1
2016-Aug-24 01:33N 50°05' W 000°37'1211.9
2016-Aug-24 00:33N 50°16' W 000°42'1414.1
2016-Aug-23 23:34N 50°29' W 000°52'1515.2
2016-Aug-23 22:34N 50°43' W 001°00'7 6.8
2016-Aug-23 21:33N 50°49' W 001°06'0 0.0
2016-Aug-23 20:33N 50°49' W 001°06'6 6.0
2016-Aug-23 19:33N 50°43' W 001°01'1717.4
2016-Aug-23 18:33N 50°27' W 000°53'1919.2
2016-Aug-23 17:34N 50°09' W 000°43'1919.3
2016-Aug-23 16:33N 49°50' W 000°34'2019.7
2016-Aug-23 15:33N 49°32' W 000°22'1515.5
2016-Aug-23 14:33N 49°17' W 000°15'0 0.0
2016-Aug-23 13:33N 49°17' W 000°15'1 0.7
2016-Aug-23 12:34N 49°18' W 000°15'2019.7
2016-Aug-23 11:34N 49°37' W 000°23'2120.9
2016-Aug-23 10:34N 49°56' W 000°37'2120.8
2016-Aug-23 09:34N 50°16' W 000°47'2019.5
2016-Aug-23 08:34N 50°34' W 000°56'1515.3
2016-Aug-23 07:34N 50°48' W 001°07'1 1.0
2016-Aug-23 06:33N 50°49' W 001°06'0 0.1
2016-Aug-23 05:34N 50°49' W 001°06'1312.7
2016-Aug-23 04:33N 50°37' W 000°58'1111.4
2016-Aug-23 03:33N 50°26' W 000°52'1211.6
2016-Aug-23 02:33N 50°16' W 000°45'1111.5
2016-Aug-23 01:33N 50°05' W 000°39'1110.9
2016-Aug-23 00:33N 49°55' W 000°33'1111.1
2016-Aug-22 23:33N 49°44' W 000°28'1110.8
2016-Aug-22 22:33N 49°34' W 000°22'1211.8
2016-Aug-22 21:33N 49°23' W 000°16'6 5.5
2016-Aug-22 20:33N 49°17' W 000°15'0 0.0
2016-Aug-22 19:34N 49°17' W 000°15'8 7.8
2016-Aug-22 18:33N 49°25' W 000°16'2019.7
2016-Aug-22 17:33N 49°43' W 000°28'2019.5
2016-Aug-22 16:33N 50°02' W 000°37'2019.9
2016-Aug-22 15:33N 50°21' W 000°48'2020.1
2016-Aug-22 14:34N 50°39' W 000°60'1010.2
2016-Aug-22 13:34N 50°49' W 001°06'0 0.0
2016-Aug-22 12:34N 50°49' W 001°06'5 4.8
2016-Aug-22 11:34N 50°44' W 001°04'1919.3
2016-Aug-22 10:33N 50°27' W 000°50'2020.4
2016-Aug-22 09:33N 50°07' W 000°42'1919.0
2016-Aug-22 08:33N 49°49' W 000°34'1918.7
2016-Aug-22 07:33N 49°32' W 000°23'1515.1
2016-Aug-22 06:33N 49°17' W 000°15'0 0.0
2016-Aug-22 05:33N 49°17' W 000°15'0 0.1
2016-Aug-22 04:33N 49°17' W 000°15'1515.0
2016-Aug-22 03:33N 49°32' W 000°19'1514.8
2016-Aug-22 02:33N 49°46' W 000°28'1515.0
2016-Aug-22 01:33N 49°60' W 000°36'1816.7
2016-Aug-22 00:28N 50°17' W 000°46'1617.0
2016-Aug-21 23:34N 50°31' W 000°54'1515.3
2016-Aug-21 22:33N 50°45' W 001°05'4 3.7
2016-Aug-21 21:33N 50°49' W 001°06'0 0.0
2016-Aug-21 20:33N 50°49' W 001°06'6 5.6
2016-Aug-21 19:33N 50°44' W 001°02'1817.8
2016-Aug-21 18:33N 50°29' W 000°46'2019.6
2016-Aug-21 17:33N 50°10' W 000°40'2120.6
2016-Aug-21 16:33N 49°50' W 000°30'2120.7
2016-Aug-21 15:33N 49°31' W 000°20'1413.6
2016-Aug-21 14:33N 49°17' W 000°15'0 0.0
2016-Aug-21 13:33N 49°17' W 000°15'0 0.2
2016-Aug-21 12:34N 49°17' W 000°15'1918.8
2016-Aug-21 11:33N 49°36' W 000°21'2121.0
2016-Aug-21 10:33N 49°55' W 000°32'2420.9
2016-Aug-21 09:25N 50°18' W 000°44'1820.9
2016-Aug-21 08:33N 50°34' W 000°55'1615.8
2016-Aug-21 07:34N 50°48' W 001°07'1 0.8
2016-Aug-21 06:34N 50°49' W 001°06'0 0.1
2016-Aug-21 05:33N 50°49' W 001°06'1212.0
2016-Aug-21 04:33N 50°38' W 000°59'1514.6
2016-Aug-21 03:34N 50°23' W 000°57'1715.1
2016-Aug-21 02:28N 50°07' W 000°54'1415.1
2016-Aug-21 01:34N 49°53' W 000°51'1312.7
2016-Aug-21 00:33N 49°41' W 000°46'9 9.4
2016-Aug-20 23:33N 49°35' W 000°35'9 9.0
2016-Aug-20 22:34N 49°29' W 000°25'10 9.6
2016-Aug-20 21:34N 49°22' W 000°15'4 4.4
2016-Aug-20 20:34N 49°17' W 000°15'0 0.0
2016-Aug-20 19:33N 49°17' W 000°15'1413.7
2016-Aug-20 18:34N 49°31' W 000°20'1919.5
2016-Aug-20 17:34N 49°49' W 000°30'1918.8
2016-Aug-20 16:34N 50°06' W 000°41'1918.8
2016-Aug-20 15:34N 50°23' W 000°53'1918.8
2016-Aug-20 14:34N 50°42' W 001°01'8 7.7
2016-Aug-20 13:33N 50°49' W 001°06'0 0.0
2016-Aug-20 12:33N 50°49' W 001°06'6 5.8
2016-Aug-20 11:33N 50°43' W 001°02'1919.4
2016-Aug-20 10:33N 50°27' W 000°46'2019.9
2016-Aug-20 09:33N 50°08' W 000°38'1919.4
2016-Aug-20 08:33N 49°49' W 000°30'1919.2
2016-Aug-20 07:34N 49°31' W 000°20'1413.8
2016-Aug-20 06:33N 49°17' W 000°15'0 0.0
2016-Aug-20 05:33N 49°17' W 000°15'0 0.1
2016-Aug-20 04:33N 49°17' W 000°15'1413.6
2016-Aug-20 03:33N 49°30' W 000°20'1514.6
2016-Aug-20 02:33N 49°44' W 000°28'1413.9
2016-Aug-20 01:34N 49°57' W 000°36'1414.0
2016-Aug-20 00:33N 50°10' W 000°43'1514.3
2016-Aug-19 23:29N 50°25' W 000°51'1616.9
2016-Aug-19 22:33N 50°40' W 000°59'1010.2
2016-Aug-19 21:33N 50°49' W 001°06'0 0.0
2016-Aug-19 20:33N 50°49' W 001°06'2 2.0
2016-Aug-19 19:33N 50°47' W 001°06'1717.4
2016-Aug-19 18:33N 50°31' W 000°53'2020.1
2016-Aug-19 17:33N 50°13' W 000°39'1919.1
2016-Aug-19 16:33N 49°54' W 000°34'2020.5
2016-Aug-19 15:33N 49°35' W 000°23'1918.7
2016-Aug-19 14:33N 49°17' W 000°15'0 0.0
2016-Aug-19 13:33N 49°17' W 000°15'0 0.3
2016-Aug-19 12:34N 49°18' W 000°15'1919.5
2016-Aug-19 11:34N 49°36' W 000°24'2121.1
2016-Aug-19 10:34N 49°56' W 000°36'3120.8
2016-Aug-19 09:03N 50°25' W 000°52'1020.6
2016-Aug-19 08:34N 50°35' W 000°57'1414.4
2016-Aug-19 07:33N 50°48' W 001°07'1 0.9
2016-Aug-19 06:33N 50°49' W 001°06'1 0.7
2016-Aug-19 05:33N 50°48' W 001°07'1413.8
2016-Aug-19 04:33N 50°36' W 000°57'1212.3
2016-Aug-19 03:33N 50°25' W 000°50'1211.5
2016-Aug-19 02:33N 50°14' W 000°44'1212.0
2016-Aug-19 01:33N 50°03' W 000°37'1212.0
2016-Aug-19 00:33N 49°51' W 000°30'1211.5
2016-Aug-18 23:33N 49°41' W 000°24'1010.2
2016-Aug-18 22:33N 49°31' W 000°18'1010.1
2016-Aug-18 21:33N 49°21' W 000°14'4 4.1
2016-Aug-18 20:34N 49°17' W 000°15'0 0.0
2016-Aug-18 19:33N 49°17' W 000°15'1212.3
2016-Aug-18 18:33N 49°30' W 000°16'2120.9
2016-Aug-18 17:33N 49°49' W 000°28'1918.8
2016-Aug-18 16:33N 50°06' W 000°40'1918.5
2016-Aug-18 15:33N 50°24' W 000°49'1818.5
2016-Aug-18 14:33N 50°41' W 001°00'9 8.5
2016-Aug-18 13:34N 50°49' W 001°06'0 0.0
2016-Aug-18 12:34N 50°49' W 001°06'3 3.1
2016-Aug-18 11:34N 50°46' W 001°05'1918.8
2016-Aug-18 10:33N 50°28' W 000°56'2120.5
2016-Aug-18 09:33N 50°09' W 000°43'2020.4
2016-Aug-18 08:33N 49°50' W 000°33'2019.6
2016-Aug-18 07:34N 49°31' W 000°23'1514.8
2016-Aug-18 06:33N 49°17' W 000°15'0 0.0
2016-Aug-18 05:33N 49°17' W 000°15'0 0.1
2016-Aug-18 04:33N 49°17' W 000°15'1414.1
2016-Aug-18 03:33N 49°31' W 000°20'1312.8
2016-Aug-18 02:34N 49°42' W 000°28'1110.6
2016-Aug-18 01:34N 49°52' W 000°34'1211.9
2016-Aug-18 00:34N 50°04' W 000°40'1515.1
2016-Aug-17 23:34N 50°18' W 000°48'1615.5
2016-Aug-17 22:34N 50°33' W 000°56'1413.9
2016-Aug-17 21:34N 50°45' W 001°05'4 3.6
2016-Aug-17 20:34N 50°49' W 001°06'0 0.0
2016-Aug-17 19:34N 50°49' W 001°06'  

Dump ship's entire track history